C2 — ZCYD3 — position and weather

sailwx.info

Track history (hours):
 
Tides and Currents Weather Stations Pressure Air Temp Water Temp Dewpoint Dewpoint Depression Visibility Wind Speed Wind Dir Waves Ship Positions

C2

Last reported at 2016-May-27 13:31 UTC. Time now 2016-May-27 14:15 UTC.
Position N 43°06' E 005°54'.

Length 79 m; draft 3.4 m.

Type: Pleasure craft. MMSI: 319268000.

Date/timePositionNaut miles runAvg speedWind from/ knotsBaromVisibWave heightAir tempDewpointWater temp
2016-May-27 13:31N 43°06' E 005°54'0 0.0
2016-May-27 12:31N 43°06' E 005°54'0 0.0
2016-May-27 11:31N 43°06' E 005°54'0 0.0
2016-May-27 10:31N 43°06' E 005°54'0 0.0
2016-May-27 09:31N 43°06' E 005°54'0 0.0
2016-May-27 08:31N 43°06' E 005°54'0 0.0
2016-May-27 07:31N 43°06' E 005°54'0 0.0
2016-May-27 06:31N 43°06' E 005°54'0 0.0
2016-May-27 05:31N 43°06' E 005°54'0 0.0
2016-May-27 04:31N 43°06' E 005°54'0 0.0
2016-May-27 03:31N 43°06' E 005°54'0 0.0
2016-May-27 02:31N 43°06' E 005°54'0 0.0
2016-May-27 01:31N 43°06' E 005°54'0 0.0
2016-May-27 00:31N 43°06' E 005°54'0 0.0
2016-May-26 23:31N 43°06' E 005°54'0 0.0
2016-May-26 22:31N 43°06' E 005°54'0 0.0
2016-May-26 21:31N 43°06' E 005°54'0 0.0
2016-May-26 20:31N 43°06' E 005°54'0 0.0
2016-May-26 19:31N 43°06' E 005°54'0 0.0
2016-May-26 18:33N 43°06' E 005°54'4 3.3
2016-May-26 17:22N 43°03' E 005°56'51 1.3
2016-May-25 01:28N 43°23' E 006°60'1112.3
2016-May-25 00:33N 43°33' E 007°06'0 0.0
2016-May-24 23:29N 43°33' E 007°06'0 0.0
2016-May-24 22:29N 43°33' E 007°06'0 0.0
2016-May-24 21:29N 43°33' E 007°06'0 0.0
2016-May-24 20:23N 43°33' E 007°06'0 0.0
2016-May-24 18:23N 43°33' E 007°06'0 0.0
2016-May-24 17:29N 43°33' E 007°06'0 0.0
2016-May-24 16:29N 43°33' E 007°06'0 0.1
2016-May-24 15:29N 43°33' E 007°06'0 0.0
2016-May-24 14:23N 43°33' E 007°06'0 0.0
2016-May-24 13:29N 43°33' E 007°06'0 0.0
2016-May-24 12:29N 43°33' E 007°06'1 0.9
2016-May-24 11:33N 43°33' E 007°07'0 0.0
2016-May-24 10:27N 43°33' E 007°07'0 0.0
2016-May-24 09:21N 43°33' E 007°07'0 0.0
2016-May-24 08:33N 43°33' E 007°07'3 3.3
2016-May-24 07:33N 43°30' E 007°04'3 3.1
2016-May-24 06:33N 43°32' E 007°01'0 0.0
2016-May-24 05:30N 43°32' E 007°01'0 0.0
2016-May-24 04:18N 43°32' E 007°01'0 0.0
2016-May-24 03:30N 43°32' E 007°01'0 0.0
2016-May-24 02:33N 43°32' E 007°01'0 0.0
2016-May-24 01:33N 43°32' E 007°01'0 0.0
2016-May-24 00:30N 43°32' E 007°01'0 0.0
2016-May-23 23:30N 43°33' E 007°01'0 0.0
2016-May-23 22:33N 43°32' E 007°01'0 0.0
2016-May-23 21:33N 43°32' E 007°01'0 0.0
2016-May-23 20:30N 43°32' E 007°01'0 0.0
2016-May-23 19:24N 43°32' E 007°01'0 0.0
2016-May-23 18:33N 43°32' E 007°01'0 0.0
2016-May-23 17:33N 43°32' E 007°01'0 0.0
2016-May-23 16:33N 43°33' E 007°01'0 0.0
2016-May-23 15:30N 43°32' E 007°01'3 3.4
2016-May-23 14:34N 43°30' E 007°04'2 1.8
2016-May-23 13:33N 43°32' E 007°03'0 0.0
2016-May-23 12:30N 43°32' E 007°03'0 0.0
2016-May-23 11:30N 43°32' E 007°03'0 0.0
2016-May-23 10:30N 43°32' E 007°03'0 0.0
2016-May-23 09:33N 43°32' E 007°03'0 0.0
2016-May-23 07:30N 43°32' E 007°03'0 0.1
2016-May-23 06:27N 43°32' E 007°03'0 0.0
2016-May-23 05:33N 43°32' E 007°03'0 0.0
2016-May-23 04:33N 43°32' E 007°03'0 0.0
2016-May-23 03:24N 43°32' E 007°03'0 0.1
2016-May-23 02:30N 43°32' E 007°03'0 0.1
2016-May-23 01:33N 43°32' E 007°03'0 0.1
2016-May-23 00:30N 43°32' E 007°03'0 0.0
2016-May-22 23:30N 43°32' E 007°03'0 0.0
2016-May-22 22:33N 43°32' E 007°03'0 0.0
2016-May-22 21:33N 43°32' E 007°03'0 0.0
2016-May-22 20:33N 43°32' E 007°03'0 0.0
2016-May-22 19:30N 43°32' E 007°03'0 0.0
2016-May-22 18:30N 43°32' E 007°03'2 2.4
2016-May-22 17:33N 43°32' E 007°06'1 0.6
2016-May-22 16:25N 43°33' E 007°07'0 0.0
2016-May-22 15:31N 43°33' E 007°07'0 0.0
2016-May-22 14:31N 43°33' E 007°07'0 0.0
2016-May-22 13:31N 43°33' E 007°07'1 1.0
2016-May-22 12:29N 43°33' E 007°06'0 0.0
2016-May-22 11:23N 43°33' E 007°06'0 0.0
2016-May-22 10:29N 43°33' E 007°06'0 0.0
2016-May-22 09:29N 43°33' E 007°06'0 0.0
2016-May-22 08:17N 43°33' E 007°06'0 0.0
2016-May-22 07:29N 43°33' E 007°06'0 0.0
2016-May-22 06:29N 43°33' E 007°06'0 0.0
2016-May-22 05:17N 43°33' E 007°06'0 0.0
2016-May-22 04:17N 43°33' E 007°06'0 0.0
2016-May-22 03:29N 43°33' E 007°06'0 0.0
2016-May-22 02:29N 43°33' E 007°06'0 0.0
2016-May-22 01:29N 43°33' E 007°06'0 0.0
2016-May-22 00:29N 43°33' E 007°06'0 0.0
2016-May-21 23:23N 43°33' E 007°06'0 0.0
2016-May-21 22:29N 43°33' E 007°06'0 0.0
2016-May-21 21:17N 43°33' E 007°06'0 0.0
2016-May-21 19:29N 43°33' E 007°06'0 0.0
2016-May-21 18:29N 43°33' E 007°06'0 0.0
2016-May-21 17:29N 43°33' E 007°06'0 0.3
2016-May-21 16:33N 43°33' E 007°06'1 0.6
2016-May-21 15:33N 43°33' E 007°07'0 0.0
2016-May-21 14:33N 43°33' E 007°07'0 0.0
2016-May-21 13:33N 43°33' E 007°07'0 0.0
2016-May-21 12:33N 43°33' E 007°07'0 0.0
2016-May-21 11:33N 43°33' E 007°07'2 1.9
2016-May-21 10:33N 43°32' E 007°04'1 0.8
2016-May-21 09:32N 43°32' E 007°03'0 0.0
2016-May-21 08:32N 43°32' E 007°03'0 0.0
2016-May-21 07:29N 43°32' E 007°03'0 0.0
2016-May-21 06:29N 43°32' E 007°03'0 0.0
2016-May-21 05:29N 43°32' E 007°03'0 0.0
2016-May-21 04:29N 43°32' E 007°03'0 0.0
2016-May-21 03:32N 43°32' E 007°03'0 0.0
2016-May-21 02:23N 43°32' E 007°03'0 0.0
2016-May-21 01:29N 43°32' E 007°03'0 0.0
2016-May-21 00:32N 43°32' E 007°03'0 0.0
2016-May-20 23:29N 43°32' E 007°03'0 0.0
2016-May-20 21:29N 43°32' E 007°03'0 0.0
2016-May-20 20:32N 43°32' E 007°03'1 1.5
2016-May-20 19:33N 43°32' E 007°05'1 1.3
2016-May-20 18:28N 43°33' E 007°07'0 0.0
2016-May-20 17:28N 43°33' E 007°07'0 0.0
2016-May-20 16:28N 43°33' E 007°07'0 0.0
2016-May-20 15:22N 43°33' E 007°07'0 0.0
2016-May-20 14:28N 43°33' E 007°07'0 0.0
2016-May-20 13:28N 43°33' E 007°07'0 0.0
2016-May-20 12:28N 43°33' E 007°07'0 0.0
2016-May-20 11:28N 43°33' E 007°07'0 0.0
2016-May-20 10:10N 43°33' E 007°07'0 0.0
2016-May-20 09:28N 43°33' E 007°07'0 0.0
2016-May-20 08:28N 43°33' E 007°07'0 0.0
2016-May-20 07:28N 43°33' E 007°07'0 0.0
2016-May-20 06:28N 43°33' E 007°07'0 0.0
2016-May-20 04:28N 43°33' E 007°07'0 0.0
2016-May-20 03:28N 43°33' E 007°07'0 0.0
2016-May-20 02:22N 43°33' E 007°07'0 0.0
2016-May-20 01:22N 43°33' E 007°07'0 0.0
2016-May-20 00:28N 43°33' E 007°07'0 0.0
2016-May-19 23:28N 43°33' E 007°07'0 0.0
2016-May-19 22:28N 43°33' E 007°07'0 0.0
2016-May-19 21:28N 43°33' E 007°07'0 0.0
2016-May-19 20:28N 43°33' E 007°07'0 0.0
2016-May-19 19:28N 43°33' E 007°07'0 0.0
2016-May-19 18:34N 43°33' E 007°07'1 0.9
2016-May-19 17:23N 43°34' E 007°06'0 0.0
2016-May-19 16:29N 43°34' E 007°06'0 0.0
2016-May-19 15:29N 43°34' E 007°06'0 0.0
2016-May-19 14:17N 43°34' E 007°06'0 0.0
2016-May-19 13:33N 43°34' E 007°06'2 1.9
2016-May-19 12:20N 43°32' E 007°04'0 0.0
2016-May-19 11:32N 43°32' E 007°04'0 0.0
2016-May-19 10:29N 43°32' E 007°04'0 0.0
2016-May-19 09:08N 43°32' E 007°04'0 0.0
2016-May-19 08:32N 43°32' E 007°04'0 0.0
2016-May-19 07:32N 43°32' E 007°04'0 0.0
2016-May-19 06:32N 43°32' E 007°04'0 0.0
2016-May-19 04:26N 43°32' E 007°04'0 0.0
2016-May-19 03:32N 43°32' E 007°04'0 0.0
2016-May-19 02:32N 43°32' E 007°04'0 0.1
2016-May-19 01:32N 43°32' E 007°04'0 0.0
2016-May-19 00:26N 43°32' E 007°04'0 0.0
2016-May-18 23:08N 43°32' E 007°04'0 0.0
2016-May-18 22:32N 43°32' E 007°04'0 0.0
2016-May-18 21:32N 43°32' E 007°04'0 0.0
2016-May-18 20:26N 43°32' E 007°04'0 0.0
2016-May-18 19:20N 43°32' E 007°04'0 0.0
2016-May-18 18:32N 43°32' E 007°04'0 0.0
2016-May-18 17:32N 43°32' E 007°04'0 0.0
2016-May-18 16:32N 43°32' E 007°04'0 0.0
2016-May-18 15:32N 43°32' E 007°04'0 0.0
2016-May-18 14:32N 43°32' E 007°04'0 0.0
2016-May-18 13:32N 43°32' E 007°04'0 0.0
2016-May-18 12:32N 43°32' E 007°04'0 0.0
2016-May-18 11:32N 43°32' E 007°04'0 0.0
2016-May-18 10:32N 43°32' E 007°04'0 0.0
2016-May-18 09:29N 43°32' E 007°04'0 0.0
2016-May-18 08:32N 43°32' E 007°04'0 0.0
2016-May-18 07:32N 43°32' E 007°04'0 0.0
2016-May-18 05:32N 43°32' E 007°04'0 0.0
2016-May-18 04:32N 43°32' E 007°04'0 0.0
2016-May-18 03:32N 43°32' E 007°04'0 0.0
2016-May-18 02:14N 43°32' E 007°04'0 0.0
2016-May-18 01:32N 43°32' E 007°04'0 0.0
2016-May-18 00:32N 43°32' E 007°04'0 0.0
2016-May-17 23:32N 43°32' E 007°04'0 0.0
2016-May-17 22:32N 43°32' E 007°04'0 0.0
2016-May-17 21:32N 43°32' E 007°04'0 0.0
2016-May-17 20:32N 43°32' E 007°04'0 0.0
2016-May-17 19:32N 43°32' E 007°04'0 0.0
2016-May-17 18:26N 43°32' E 007°04'0 0.0
2016-May-17 17:32N 43°32' E 007°04'0 0.0
2016-May-17 16:32N 43°32' E 007°04'0 0.0
2016-May-17 15:32N 43°32' E 007°04'0 0.0
2016-May-17 14:26N 43°32' E 007°04'0 0.0
2016-May-17 13:32N 43°32' E 007°04'  
Track history (hours):
 
Tides and Currents Weather Stations Pressure Air Temp Water Temp Dewpoint Dewpoint Depression Visibility Wind Speed Wind Dir Waves Ship Positions

C2

Last reported at 2016-May-27 13:31 UTC. Time now 2016-May-27 14:15 UTC.
Position N 43°06' E 005°54'.

Length 79 m; draft 3.4 m.

Type: Pleasure craft. MMSI: 319268000.

Date/timePositionNaut miles runAvg speedWind from/ knotsBaromVisibWave heightAir tempDewpointWater temp
2016-May-27 13:31N 43°06' E 005°54'0 0.0
2016-May-27 12:31N 43°06' E 005°54'0 0.0
2016-May-27 11:31N 43°06' E 005°54'0 0.0
2016-May-27 10:31N 43°06' E 005°54'0 0.0
2016-May-27 09:31N 43°06' E 005°54'0 0.0
2016-May-27 08:31N 43°06' E 005°54'0 0.0
2016-May-27 07:31N 43°06' E 005°54'0 0.0
2016-May-27 06:31N 43°06' E 005°54'0 0.0
2016-May-27 05:31N 43°06' E 005°54'0 0.0
2016-May-27 04:31N 43°06' E 005°54'0 0.0
2016-May-27 03:31N 43°06' E 005°54'0 0.0
2016-May-27 02:31N 43°06' E 005°54'0 0.0
2016-May-27 01:31N 43°06' E 005°54'0 0.0
2016-May-27 00:31N 43°06' E 005°54'0 0.0
2016-May-26 23:31N 43°06' E 005°54'0 0.0
2016-May-26 22:31N 43°06' E 005°54'0 0.0
2016-May-26 21:31N 43°06' E 005°54'0 0.0
2016-May-26 20:31N 43°06' E 005°54'0 0.0
2016-May-26 19:31N 43°06' E 005°54'0 0.0
2016-May-26 18:33N 43°06' E 005°54'4 3.3
2016-May-26 17:22N 43°03' E 005°56'51 1.3
2016-May-25 01:28N 43°23' E 006°60'1112.3
2016-May-25 00:33N 43°33' E 007°06'0 0.0
2016-May-24 23:29N 43°33' E 007°06'0 0.0
2016-May-24 22:29N 43°33' E 007°06'0 0.0
2016-May-24 21:29N 43°33' E 007°06'0 0.0
2016-May-24 20:23N 43°33' E 007°06'0 0.0
2016-May-24 18:23N 43°33' E 007°06'0 0.0
2016-May-24 17:29N 43°33' E 007°06'0 0.0
2016-May-24 16:29N 43°33' E 007°06'0 0.1
2016-May-24 15:29N 43°33' E 007°06'0 0.0
2016-May-24 14:23N 43°33' E 007°06'0 0.0
2016-May-24 13:29N 43°33' E 007°06'0 0.0
2016-May-24 12:29N 43°33' E 007°06'1 0.9
2016-May-24 11:33N 43°33' E 007°07'0 0.0
2016-May-24 10:27N 43°33' E 007°07'0 0.0
2016-May-24 09:21N 43°33' E 007°07'0 0.0
2016-May-24 08:33N 43°33' E 007°07'3 3.3
2016-May-24 07:33N 43°30' E 007°04'3 3.1
2016-May-24 06:33N 43°32' E 007°01'0 0.0
2016-May-24 05:30N 43°32' E 007°01'0 0.0
2016-May-24 04:18N 43°32' E 007°01'0 0.0
2016-May-24 03:30N 43°32' E 007°01'0 0.0
2016-May-24 02:33N 43°32' E 007°01'0 0.0
2016-May-24 01:33N 43°32' E 007°01'0 0.0
2016-May-24 00:30N 43°32' E 007°01'0 0.0
2016-May-23 23:30N 43°33' E 007°01'0 0.0
2016-May-23 22:33N 43°32' E 007°01'0 0.0
2016-May-23 21:33N 43°32' E 007°01'0 0.0
2016-May-23 20:30N 43°32' E 007°01'0 0.0
2016-May-23 19:24N 43°32' E 007°01'0 0.0
2016-May-23 18:33N 43°32' E 007°01'0 0.0
2016-May-23 17:33N 43°32' E 007°01'0 0.0
2016-May-23 16:33N 43°33' E 007°01'0 0.0
2016-May-23 15:30N 43°32' E 007°01'3 3.4
2016-May-23 14:34N 43°30' E 007°04'2 1.8
2016-May-23 13:33N 43°32' E 007°03'0 0.0
2016-May-23 12:30N 43°32' E 007°03'0 0.0
2016-May-23 11:30N 43°32' E 007°03'0 0.0
2016-May-23 10:30N 43°32' E 007°03'0 0.0
2016-May-23 09:33N 43°32' E 007°03'0 0.0
2016-May-23 07:30N 43°32' E 007°03'0 0.1
2016-May-23 06:27N 43°32' E 007°03'0 0.0
2016-May-23 05:33N 43°32' E 007°03'0 0.0
2016-May-23 04:33N 43°32' E 007°03'0 0.0
2016-May-23 03:24N 43°32' E 007°03'0 0.1
2016-May-23 02:30N 43°32' E 007°03'0 0.1
2016-May-23 01:33N 43°32' E 007°03'0 0.1
2016-May-23 00:30N 43°32' E 007°03'0 0.0
2016-May-22 23:30N 43°32' E 007°03'0 0.0
2016-May-22 22:33N 43°32' E 007°03'0 0.0
2016-May-22 21:33N 43°32' E 007°03'0 0.0
2016-May-22 20:33N 43°32' E 007°03'0 0.0
2016-May-22 19:30N 43°32' E 007°03'0 0.0
2016-May-22 18:30N 43°32' E 007°03'2 2.4
2016-May-22 17:33N 43°32' E 007°06'1 0.6
2016-May-22 16:25N 43°33' E 007°07'0 0.0
2016-May-22 15:31N 43°33' E 007°07'0 0.0
2016-May-22 14:31N 43°33' E 007°07'0 0.0
2016-May-22 13:31N 43°33' E 007°07'1 1.0
2016-May-22 12:29N 43°33' E 007°06'0 0.0
2016-May-22 11:23N 43°33' E 007°06'0 0.0
2016-May-22 10:29N 43°33' E 007°06'0 0.0
2016-May-22 09:29N 43°33' E 007°06'0 0.0
2016-May-22 08:17N 43°33' E 007°06'0 0.0
2016-May-22 07:29N 43°33' E 007°06'0 0.0
2016-May-22 06:29N 43°33' E 007°06'0 0.0
2016-May-22 05:17N 43°33' E 007°06'0 0.0
2016-May-22 04:17N 43°33' E 007°06'0 0.0
2016-May-22 03:29N 43°33' E 007°06'0 0.0
2016-May-22 02:29N 43°33' E 007°06'0 0.0
2016-May-22 01:29N 43°33' E 007°06'0 0.0
2016-May-22 00:29N 43°33' E 007°06'0 0.0
2016-May-21 23:23N 43°33' E 007°06'0 0.0
2016-May-21 22:29N 43°33' E 007°06'0 0.0
2016-May-21 21:17N 43°33' E 007°06'0 0.0
2016-May-21 19:29N 43°33' E 007°06'0 0.0
2016-May-21 18:29N 43°33' E 007°06'0 0.0
2016-May-21 17:29N 43°33' E 007°06'0 0.3
2016-May-21 16:33N 43°33' E 007°06'1 0.6
2016-May-21 15:33N 43°33' E 007°07'0 0.0
2016-May-21 14:33N 43°33' E 007°07'0 0.0
2016-May-21 13:33N 43°33' E 007°07'0 0.0
2016-May-21 12:33N 43°33' E 007°07'0 0.0
2016-May-21 11:33N 43°33' E 007°07'2 1.9
2016-May-21 10:33N 43°32' E 007°04'1 0.8
2016-May-21 09:32N 43°32' E 007°03'0 0.0
2016-May-21 08:32N 43°32' E 007°03'0 0.0
2016-May-21 07:29N 43°32' E 007°03'0 0.0
2016-May-21 06:29N 43°32' E 007°03'0 0.0
2016-May-21 05:29N 43°32' E 007°03'0 0.0
2016-May-21 04:29N 43°32' E 007°03'0 0.0
2016-May-21 03:32N 43°32' E 007°03'0 0.0
2016-May-21 02:23N 43°32' E 007°03'0 0.0
2016-May-21 01:29N 43°32' E 007°03'0 0.0
2016-May-21 00:32N 43°32' E 007°03'0 0.0
2016-May-20 23:29N 43°32' E 007°03'0 0.0
2016-May-20 21:29N 43°32' E 007°03'0 0.0
2016-May-20 20:32N 43°32' E 007°03'1 1.5
2016-May-20 19:33N 43°32' E 007°05'1 1.3
2016-May-20 18:28N 43°33' E 007°07'0 0.0
2016-May-20 17:28N 43°33' E 007°07'0 0.0
2016-May-20 16:28N 43°33' E 007°07'0 0.0
2016-May-20 15:22N 43°33' E 007°07'0 0.0
2016-May-20 14:28N 43°33' E 007°07'0 0.0
2016-May-20 13:28N 43°33' E 007°07'0 0.0
2016-May-20 12:28N 43°33' E 007°07'0 0.0
2016-May-20 11:28N 43°33' E 007°07'0 0.0
2016-May-20 10:10N 43°33' E 007°07'0 0.0
2016-May-20 09:28N 43°33' E 007°07'0 0.0
2016-May-20 08:28N 43°33' E 007°07'0 0.0
2016-May-20 07:28N 43°33' E 007°07'0 0.0
2016-May-20 06:28N 43°33' E 007°07'0 0.0
2016-May-20 04:28N 43°33' E 007°07'0 0.0
2016-May-20 03:28N 43°33' E 007°07'0 0.0
2016-May-20 02:22N 43°33' E 007°07'0 0.0
2016-May-20 01:22N 43°33' E 007°07'0 0.0
2016-May-20 00:28N 43°33' E 007°07'0 0.0
2016-May-19 23:28N 43°33' E 007°07'0 0.0
2016-May-19 22:28N 43°33' E 007°07'0 0.0
2016-May-19 21:28N 43°33' E 007°07'0 0.0
2016-May-19 20:28N 43°33' E 007°07'0 0.0
2016-May-19 19:28N 43°33' E 007°07'0 0.0
2016-May-19 18:34N 43°33' E 007°07'1 0.9
2016-May-19 17:23N 43°34' E 007°06'0 0.0
2016-May-19 16:29N 43°34' E 007°06'0 0.0
2016-May-19 15:29N 43°34' E 007°06'0 0.0
2016-May-19 14:17N 43°34' E 007°06'0 0.0
2016-May-19 13:33N 43°34' E 007°06'2 1.9
2016-May-19 12:20N 43°32' E 007°04'0 0.0
2016-May-19 11:32N 43°32' E 007°04'0 0.0
2016-May-19 10:29N 43°32' E 007°04'0 0.0
2016-May-19 09:08N 43°32' E 007°04'0 0.0
2016-May-19 08:32N 43°32' E 007°04'0 0.0
2016-May-19 07:32N 43°32' E 007°04'0 0.0
2016-May-19 06:32N 43°32' E 007°04'0 0.0
2016-May-19 04:26N 43°32' E 007°04'0 0.0
2016-May-19 03:32N 43°32' E 007°04'0 0.0
2016-May-19 02:32N 43°32' E 007°04'0 0.1
2016-May-19 01:32N 43°32' E 007°04'0 0.0
2016-May-19 00:26N 43°32' E 007°04'0 0.0
2016-May-18 23:08N 43°32' E 007°04'0 0.0
2016-May-18 22:32N 43°32' E 007°04'0 0.0
2016-May-18 21:32N 43°32' E 007°04'0 0.0
2016-May-18 20:26N 43°32' E 007°04'0 0.0
2016-May-18 19:20N 43°32' E 007°04'0 0.0
2016-May-18 18:32N 43°32' E 007°04'0 0.0
2016-May-18 17:32N 43°32' E 007°04'0 0.0
2016-May-18 16:32N 43°32' E 007°04'0 0.0
2016-May-18 15:32N 43°32' E 007°04'0 0.0
2016-May-18 14:32N 43°32' E 007°04'0 0.0
2016-May-18 13:32N 43°32' E 007°04'0 0.0
2016-May-18 12:32N 43°32' E 007°04'0 0.0
2016-May-18 11:32N 43°32' E 007°04'0 0.0
2016-May-18 10:32N 43°32' E 007°04'0 0.0
2016-May-18 09:29N 43°32' E 007°04'0 0.0
2016-May-18 08:32N 43°32' E 007°04'0 0.0
2016-May-18 07:32N 43°32' E 007°04'0 0.0
2016-May-18 05:32N 43°32' E 007°04'0 0.0
2016-May-18 04:32N 43°32' E 007°04'0 0.0
2016-May-18 03:32N 43°32' E 007°04'0 0.0
2016-May-18 02:14N 43°32' E 007°04'0 0.0
2016-May-18 01:32N 43°32' E 007°04'0 0.0
2016-May-18 00:32N 43°32' E 007°04'0 0.0
2016-May-17 23:32N 43°32' E 007°04'0 0.0
2016-May-17 22:32N 43°32' E 007°04'0 0.0
2016-May-17 21:32N 43°32' E 007°04'0 0.0
2016-May-17 20:32N 43°32' E 007°04'0 0.0
2016-May-17 19:32N 43°32' E 007°04'0 0.0
2016-May-17 18:26N 43°32' E 007°04'0 0.0
2016-May-17 17:32N 43°32' E 007°04'0 0.0
2016-May-17 16:32N 43°32' E 007°04'0 0.0
2016-May-17 15:32N 43°32' E 007°04'0 0.0
2016-May-17 14:26N 43°32' E 007°04'0 0.0
2016-May-17 13:32N 43°32' E 007°04'  

Dump ship's entire track history